Decoded Metar for KJEF (JEFFERSON CITY in MO, USA) (IATA:JEF) | Meteo·Mobile Aviation Weather
aviador You're here:

KJEF Decoded Metar

JEFFERSON CITY in MO, USA
Report Time2018-12-18 15:53:00
UTC Time2018-12-18 16:49:02
Flight Rules vfr VFR
Wind120° at 05 kt
W.Decomp.*RWY 12: 5.0 kt HW 0.3 kt LCW
RWY 09: 4.5 kt HW 2.3 kt RCW
W.Rank120° ranks 2
Current wind is below 120° avg. (5.6)
Visibility9999 m
Phenomena:N/A
Clouds:N/A
Expected CloudBase > 2,000 ft AGL from Temp-Dew spread
CeilingNone
Temp03°C (ISA -11)
Dew Point-2°C (70% RH)
AAT-1.1°C
QNH1022 hPa
Density Alt-1,001 ft
Elevation551 ft
Report Wrong Elevation
Raw Report
KJEF 181553Z 12005KT 10SM CLR 03/M02 A3019 RMK AO2 SLP219
T00281017=

Extra information for KJEF:More info

Metar Taf Metar & Taf Last 4 Metars F.Rules Stats Wind Profile Meteogram Temp Stats Airport Information Weather charts Add Link Nearby VenuesMetar ALERT Operation Metar Decoded Social comments

AIRNAV info for KJEF